Time;durP1;ratioP1;P1;durP2;ratioP2;P2;SDS_P1;SDS_P2;PMS_P1;PMS_P2;Temp;Humidity;BMP_temperature;BMP_pressure;BME280_temperature;BME280_humidity;BME280_pressure;Samples;Min_cycle;Max_cycle;Signal;HPM_P1;HPM_P2
2022/09/17 00:01:32;;;;;;;3.45;1.50;;;10.40;99.90;;;;;;2585144;54;20030;31
2022/09/17 00:04:05;;;;;;;3.08;1.48;;;10.40;99.90;;;;;;2683290;39;21059;31
2022/09/17 00:06:39;;;;;;;6.32;1.65;;;10.40;99.90;;;;;;2584896;54;20941;31
2022/09/17 00:09:14;;;;;;;3.60;1.80;;;10.40;99.90;;;;;;2585256;54;20975;31
2022/09/17 00:11:46;;;;;;;4.85;2.67;;;10.40;99.90;;;;;;2603302;46;20022;31
2022/09/17 00:14:23;;;;;;;2.38;1.50;;;10.40;99.90;;;;;;2585000;54;20886;31
2022/09/17 00:16:57;;;;;;;6.30;1.85;;;10.40;99.90;;;;;;2585152;54;20941;31
2022/09/17 00:19:34;;;;;;;4.00;1.40;;;10.40;99.90;;;;;;2584820;54;20027;31
2022/09/17 00:22:08;;;;;;;3.53;1.48;;;10.40;99.90;;;;;;2585177;54;20254;31
2022/09/17 00:24:42;;;;;;;3.58;1.20;;;10.40;99.90;;;;;;2584906;54;20093;31
2022/09/17 00:27:15;;;;;;;4.05;1.10;;;10.50;99.90;;;;;;2585028;54;20839;31
2022/09/17 00:29:52;;;;;;;2.30;1.10;;;10.40;99.90;;;;;;2584937;54;20837;31
2022/09/17 00:32:29;;;;;;;4.80;1.47;;;10.40;99.90;;;;;;2603611;46;20037;31
2022/09/17 00:35:01;;;;;;;4.20;1.30;;;10.40;99.90;;;;;;2584756;54;21177;31
2022/09/17 00:37:36;;;;;;;3.90;1.20;;;10.40;99.90;;;;;;2583959;54;20818;31
2022/09/17 00:40:14;;;;;;;3.28;1.13;;;10.40;99.90;;;;;;2585033;54;20853;31
2022/09/17 00:42:48;;;;;;;2.90;0.90;;;10.30;99.90;;;;;;2584006;54;20039;31
2022/09/17 00:45:26;;;;;;;1.70;0.90;;;10.30;99.90;;;;;;2585116;54;20053;31
2022/09/17 00:48:00;;;;;;;5.43;1.20;;;10.40;99.90;;;;;;2603335;46;20867;31
2022/09/17 00:50:35;;;;;;;3.55;1.35;;;10.30;99.90;;;;;;2584801;54;20951;31
2022/09/17 00:53:09;;;;;;;3.80;1.40;;;10.30;99.90;;;;;;2584922;54;20080;31
2022/09/17 00:55:45;;;;;;;3.20;1.20;;;10.30;99.90;;;;;;2584792;54;21143;31
2022/09/17 00:58:18;;;;;;;3.42;1.20;;;10.30;99.90;;;;;;2603206;46;21139;31
2022/09/17 01:00:55;;;;;;;5.07;1.25;;;10.30;99.90;;;;;;2585006;54;20023;31
2022/09/17 01:03:29;;;;;;;2.80;1.20;;;10.30;99.90;;;;;;2584456;54;20943;31
2022/09/17 01:06:07;;;;;;;2.83;1.20;;;10.30;99.90;;;;;;2584812;54;20026;31
2022/09/17 01:08:47;;;;;;;4.05;1.00;;;10.30;99.90;;;;;;2603302;47;20023;31
2022/09/17 01:11:32;;;;;;;1.80;0.70;;;10.30;99.90;;;;;;2584621;54;20030;31
2022/09/17 01:14:15;;;;;;;3.05;0.70;;;10.30;99.90;;;;;;2584871;54;20875;31
2022/09/17 01:16:56;;;;;;;2.67;0.88;;;10.30;99.90;;;;;;2584698;54;20890;31
2022/09/17 01:20:08;;;;;;;2.33;1.00;;;10.30;99.90;;;;;;2584907;54;20022;31
2022/09/17 01:22:47;;;;;;;2.83;0.95;;;10.30;99.90;;;;;;2584787;54;20026;31
2022/09/17 01:25:24;;;;;;;7.25;1.00;;;10.30;99.90;;;;;;2603433;47;20952;31
2022/09/17 01:28:28;;;;;;;2.85;1.00;;;10.30;99.90;;;;;;2584763;54;20798;31
2022/09/17 01:31:11;;;;;;;3.00;0.80;;;10.30;99.90;;;;;;2585024;54;19972;31
2022/09/17 01:33:45;;;;;;;2.80;0.80;;;10.30;99.90;;;;;;2584945;54;20030;31
2022/09/17 01:36:26;;;;;;;1.65;0.80;;;10.30;99.90;;;;;;2584948;54;20923;31
2022/09/17 01:39:03;;;;;;;5.90;0.77;;;10.20;99.90;;;;;;2585086;54;22514;31
2022/09/17 01:41:42;;;;;;;2.30;0.80;;;10.30;99.90;;;;;;2584875;54;20103;31
2022/09/17 01:44:27;;;;;;;4.97;1.23;;;10.30;99.90;;;;;;2584832;54;20194;31
2022/09/17 01:47:06;;;;;;;2.00;0.87;;;10.30;99.90;;;;;;2584516;54;20031;31
2022/09/17 01:49:40;;;;;;;4.10;1.00;;;10.30;99.90;;;;;;2584608;54;20027;31
2022/09/17 01:52:15;;;;;;;2.53;0.88;;;10.20;99.90;;;;;;2584595;54;20875;31
2022/09/17 01:54:49;;;;;;;2.28;0.82;;;10.30;99.90;;;;;;2584643;54;20044;31
2022/09/17 01:57:24;;;;;;;2.97;0.65;;;10.30;99.90;;;;;;2584805;54;20022;31
2022/09/17 01:59:58;;;;;;;1.95;0.85;;;10.30;99.90;;;;;;2682750;39;22300;31
2022/09/17 02:02:37;;;;;;;4.80;0.90;;;10.30;99.90;;;;;;2584733;54;21009;31
2022/09/17 02:05:11;;;;;;;1.95;1.00;;;10.30;99.90;;;;;;2602795;47;20949;31
2022/09/17 02:07:47;;;;;;;3.33;0.80;;;10.30;99.90;;;;;;2585229;54;20935;31
2022/09/17 02:10:20;;;;;;;3.08;0.77;;;10.30;99.90;;;;;;2585155;54;20029;31
2022/09/17 02:12:58;;;;;;;3.65;0.85;;;10.30;99.90;;;;;;2585468;54;20142;31
2022/09/17 02:15:32;;;;;;;6.10;0.90;;;10.40;99.90;;;;;;2604390;46;20915;31
2022/09/17 02:18:12;;;;;;;4.60;0.77;;;10.30;99.90;;;;;;2585504;54;20934;31
2022/09/17 02:20:46;;;;;;;3.55;1.00;;;10.30;99.90;;;;;;2585427;54;20045;31
2022/09/17 02:23:22;;;;;;;3.63;1.15;;;10.30;99.90;;;;;;2585639;54;20912;31
2022/09/17 02:25:59;;;;;;;4.77;1.10;;;10.40;99.90;;;;;;2585397;54;20784;31
2022/09/17 02:28:35;;;;;;;3.78;1.77;;;10.30;99.90;;;;;;2585250;54;20026;31
2022/09/17 02:31:07;;;;;;;;;;;10.30;99.90;;;;;;2585851;54;20779;31
2022/09/17 02:33:43;;;;;;;7.38;0.80;;;10.30;99.90;;;;;;2585039;54;19935;31
2022/09/17 02:36:15;;;;;;;3.97;0.95;;;10.30;99.90;;;;;;2603666;46;20053;31
2022/09/17 02:38:49;;;;;;;2.35;1.00;;;10.30;99.90;;;;;;2603852;46;20874;31
2022/09/17 02:41:24;;;;;;;6.00;2.10;;;10.30;99.90;;;;;;2585258;54;20056;31
2022/09/17 02:44:10;;;;;;;3.15;0.80;;;10.30;99.90;;;;;;2585500;54;20085;31
2022/09/17 02:46:53;;;;;;;6.07;1.38;;;10.30;99.90;;;;;;2585368;54;20030;31
2022/09/17 02:49:39;;;;;;;3.00;1.00;;;10.40;99.90;;;;;;2585125;54;19950;31
2022/09/17 02:52:16;;;;;;;1.90;0.80;;;10.40;99.90;;;;;;2603713;46;20093;31
2022/09/17 02:54:53;;;;;;;7.10;1.40;;;10.40;99.90;;;;;;2585516;54;20807;31
2022/09/17 02:57:28;;;;;;;3.35;0.90;;;10.50;99.90;;;;;;2603890;46;22762;31
2022/09/17 03:00:06;;;;;;;2.03;0.80;;;10.60;99.90;;;;;;2585260;54;20950;31
2022/09/17 03:02:41;;;;;;;3.63;0.93;;;10.60;99.90;;;;;;2585102;54;20033;31
2022/09/17 03:05:20;;;;;;;2.50;0.97;;;10.60;99.90;;;;;;2585199;54;20079;31
2022/09/17 03:07:54;;;;;;;5.70;1.30;;;10.70;99.90;;;;;;2584363;54;20038;31
2022/09/17 03:10:29;;;;;;;6.50;0.90;;;10.70;99.90;;;;;;2585028;54;20250;31
2022/09/17 03:13:04;;;;;;;3.20;0.98;;;10.70;99.90;;;;;;2585359;54;20164;31
2022/09/17 03:15:40;;;;;;;4.00;1.00;;;10.70;99.90;;;;;;2585118;54;20788;31
2022/09/17 03:18:15;;;;;;;5.82;1.02;;;10.70;99.90;;;;;;2585326;54;20081;31
2022/09/17 03:20:54;;;;;;;3.25;1.10;;;10.80;99.90;;;;;;2585438;54;20784;31
2022/09/17 03:23:32;;;;;;;2.90;1.00;;;10.80;99.90;;;;;;2585293;54;20038;31
2022/09/17 03:26:07;;;;;;;4.70;1.40;;;10.80;99.90;;;;;;2585496;54;20057;31
2022/09/17 03:28:44;;;;;;;3.60;1.10;;;10.80;99.90;;;;;;2584909;54;20033;31
2022/09/17 03:31:19;;;;;;;6.50;1.17;;;10.80;99.90;;;;;;2585389;54;20022;31
2022/09/17 03:33:57;;;;;;;5.05;1.33;;;10.80;99.90;;;;;;2585375;54;20958;31
2022/09/17 03:36:38;;;;;;;3.27;0.90;;;10.70;99.90;;;;;;2585137;54;20886;31
2022/09/17 03:39:14;;;;;;;3.65;1.17;;;10.80;99.90;;;;;;2583990;54;20038;31
2022/09/17 03:41:54;;;;;;;2.92;0.90;;;10.80;99.90;;;;;;2584828;54;21039;31
2022/09/17 03:44:26;;;;;;;5.07;1.10;;;10.70;99.90;;;;;;2584402;54;20900;31
2022/09/17 03:47:00;;;;;;;4.45;1.10;;;10.80;99.90;;;;;;2602461;46;20034;31
2022/09/17 03:49:32;;;;;;;5.15;1.10;;;10.70;99.90;;;;;;2584335;54;20934;31
2022/09/17 03:52:09;;;;;;;6.85;1.02;;;10.70;99.90;;;;;;2584303;54;21037;31
2022/09/17 03:54:41;;;;;;;3.38;0.90;;;10.70;99.90;;;;;;2595288;46;20948;31
2022/09/17 03:57:15;;;;;;;2.50;1.10;;;10.70;99.90;;;;;;2585174;54;20854;31
2022/09/17 03:59:50;;;;;;;3.25;1.23;;;10.70;99.90;;;;;;2584584;54;20729;31
2022/09/17 04:02:26;;;;;;;3.93;1.10;;;10.80;99.90;;;;;;2584343;54;21967;31
2022/09/17 04:04:59;;;;;;;1.77;0.80;;;10.70;99.90;;;;;;2585020;54;20038;31
2022/09/17 04:07:40;;;;;;;5.90;1.55;;;10.80;99.90;;;;;;2682620;39;20641;31
2022/09/17 04:10:13;;;;;;;4.32;0.80;;;10.80;99.90;;;;;;2585013;54;20063;31
2022/09/17 04:12:49;;;;;;;2.58;0.95;;;10.80;99.90;;;;;;2585055;54;20931;31
2022/09/17 04:15:26;;;;;;;2.75;0.90;;;10.70;99.90;;;;;;2585129;54;20997;31
2022/09/17 04:18:00;;;;;;;3.35;0.60;;;10.70;99.90;;;;;;2603643;46;20022;31
2022/09/17 04:20:35;;;;;;;3.47;0.65;;;10.70;99.90;;;;;;2585238;54;20939;31
2022/09/17 04:23:13;;;;;;;3.70;0.70;;;10.80;99.90;;;;;;2584987;54;21647;31
2022/09/17 04:25:52;;;;;;;2.75;0.70;;;10.80;99.90;;;;;;2585124;54;20766;31
2022/09/17 04:28:25;;;;;;;2.15;1.13;;;10.80;99.90;;;;;;2585079;54;22029;31
2022/09/17 04:31:01;;;;;;;8.43;1.60;;;10.80;99.90;;;;;;2585221;54;20030;31
2022/09/17 04:33:36;;;;;;;5.07;0.93;;;10.80;99.90;;;;;;2585189;54;20247;31
2022/09/17 04:36:10;;;;;;;1.70;0.73;;;10.80;99.90;;;;;;2754153;31;21421;31
2022/09/17 04:38:49;;;;;;;4.60;1.05;;;10.90;99.90;;;;;;2603527;46;20894;31
2022/09/17 04:41:24;;;;;;;7.07;1.30;;;10.90;99.90;;;;;;2584312;54;20081;31
2022/09/17 04:43:59;;;;;;;2.25;1.00;;;10.90;99.90;;;;;;2585078;54;21697;31
2022/09/17 04:46:34;;;;;;;8.68;0.90;;;11.00;99.90;;;;;;2603489;46;20904;31
2022/09/17 04:49:08;;;;;;;6.20;1.65;;;10.90;99.90;;;;;;2583943;54;21336;31
2022/09/17 04:51:47;;;;;;;3.53;1.10;;;10.90;99.90;;;;;;2584911;54;20038;31
2022/09/17 04:54:24;;;;;;;3.45;1.20;;;10.90;99.90;;;;;;2603480;46;20933;31
2022/09/17 04:57:01;;;;;;;5.45;1.23;;;10.90;99.90;;;;;;2584765;54;20675;31
2022/09/17 04:59:35;;;;;;;5.65;2.55;;;10.90;99.90;;;;;;2583927;54;20940;31
2022/09/17 05:02:08;;;;;;;4.07;1.07;;;11.00;99.90;;;;;;2584916;54;20926;31
2022/09/17 05:04:45;;;;;;;4.00;1.30;;;11.00;99.90;;;;;;2603137;47;20051;31
2022/09/17 05:07:18;;;;;;;4.85;1.13;;;11.00;99.90;;;;;;2585129;54;21858;31
2022/09/17 05:09:56;;;;;;;4.43;1.52;;;11.00;99.90;;;;;;2700951;39;21670;31
2022/09/17 05:12:31;;;;;;;3.10;0.98;;;11.00;99.90;;;;;;2584680;54;20878;31
2022/09/17 05:15:13;;;;;;;4.90;1.10;;;11.10;99.90;;;;;;2602956;47;20033;31
2022/09/17 05:17:48;;;;;;;4.00;1.25;;;11.10;99.90;;;;;;2603626;47;20058;31
2022/09/17 05:20:21;;;;;;;3.10;1.40;;;11.10;99.90;;;;;;2602724;47;20908;31
2022/09/17 05:22:54;;;;;;;6.75;1.60;;;11.20;99.90;;;;;;2603128;47;22409;31
2022/09/17 05:25:31;;;;;;;5.50;1.70;;;11.20;99.90;;;;;;2584969;54;20031;31
2022/09/17 05:28:07;;;;;;;5.87;1.67;;;11.20;99.90;;;;;;2584221;54;20950;31
2022/09/17 05:30:43;;;;;;;7.10;1.70;;;11.30;99.90;;;;;;2602692;47;20022;31
2022/09/17 05:33:18;;;;;;;5.68;2.13;;;11.30;99.90;;;;;;2584954;54;20912;31
2022/09/17 05:35:55;;;;;;;2.50;1.27;;;11.30;99.90;;;;;;2585378;54;21151;31
2022/09/17 05:38:30;;;;;;;4.80;1.90;;;11.40;99.90;;;;;;2583896;54;20022;31
2022/09/17 05:41:12;;;;;;;9.90;1.83;;;11.40;99.90;;;;;;2585165;54;21328;31
2022/09/17 05:43:45;;;;;;;8.38;2.80;;;11.40;99.90;;;;;;2585828;54;21222;31
2022/09/17 05:46:21;;;;;;;10.95;3.65;;;11.50;99.90;;;;;;2585719;54;20942;31
2022/09/17 05:48:59;;;;;;;7.75;2.00;;;11.50;99.90;;;;;;2584832;54;20767;31
2022/09/17 05:51:37;;;;;;;5.43;1.77;;;11.50;99.90;;;;;;2604638;46;20293;31
2022/09/17 05:54:14;;;;;;;4.90;1.77;;;11.60;99.90;;;;;;2585609;54;20896;31
2022/09/17 05:56:50;;;;;;;4.97;1.60;;;11.50;99.90;;;;;;2585453;54;20106;31
2022/09/17 05:59:27;;;;;;;10.55;1.90;;;11.60;99.90;;;;;;2585632;54;20926;31
2022/09/17 06:02:00;;;;;;;3.60;1.55;;;11.60;99.90;;;;;;2585786;54;20813;31
2022/09/17 06:04:40;;;;;;;4.85;1.90;;;11.70;99.90;;;;;;2585337;54;20803;31
2022/09/17 06:07:14;;;;;;;7.50;1.95;;;11.60;99.90;;;;;;2585507;54;20856;31
2022/09/17 06:09:49;;;;;;;5.47;1.80;;;11.70;99.90;;;;;;2591585;46;20047;31
2022/09/17 06:12:31;;;;;;;3.45;1.60;;;11.70;99.90;;;;;;2585682;54;20037;31
2022/09/17 06:15:09;;;;;;;8.43;2.33;;;11.80;99.90;;;;;;2585522;54;20077;31
2022/09/17 06:17:51;;;;;;;9.52;2.67;;;11.80;99.90;;;;;;2585446;54;20377;31
2022/09/17 06:20:27;;;;;;;4.35;1.65;;;11.80;99.90;;;;;;2588758;46;20145;31
2022/09/17 06:23:03;;;;;;;12.27;2.05;;;11.80;99.90;;;;;;2584740;54;20889;31
2022/09/17 06:25:52;;;;;;;6.05;2.55;;;11.80;99.90;;;;;;2585899;54;22510;31
2022/09/17 06:28:30;;;;;;;8.13;2.40;;;11.90;99.90;;;;;;2604194;46;20030;31
2022/09/17 06:31:04;;;;;;;6.00;2.10;;;11.90;99.90;;;;;;2585683;54;20117;31
2022/09/17 06:33:43;;;;;;;;;;;11.90;99.90;;;;;;2585040;54;20062;31
2022/09/17 06:36:19;;;;;;;4.50;1.80;;;11.90;99.90;;;;;;2584142;54;19959;31
2022/09/17 06:38:57;;;;;;;4.05;1.90;;;11.90;99.90;;;;;;2603182;46;20084;31
2022/09/17 06:41:45;;;;;;;6.33;1.77;;;11.90;99.90;;;;;;2584808;54;20864;31
2022/09/17 06:44:40;;;;;;;7.00;1.92;;;12.00;99.90;;;;;;2585448;54;20081;31
2022/09/17 06:47:18;;;;;;;6.10;1.90;;;12.00;99.90;;;;;;2585341;54;20033;31
2022/09/17 06:49:58;;;;;;;4.65;1.90;;;12.00;99.90;;;;;;2585302;54;20042;31
2022/09/17 06:52:35;;;;;;;6.20;2.10;;;12.10;99.90;;;;;;2585343;54;20901;31
2022/09/17 06:55:12;;;;;;;5.78;1.98;;;12.00;99.90;;;;;;2584651;54;21301;31
2022/09/17 06:57:51;;;;;;;7.40;2.60;;;12.00;99.90;;;;;;2589927;46;20937;31
2022/09/17 07:00:30;;;;;;;8.45;1.67;;;12.00;99.90;;;;;;2585102;54;20921;31
2022/09/17 07:03:05;;;;;;;7.03;1.95;;;12.10;99.90;;;;;;2585506;54;20026;31
2022/09/17 07:05:45;;;;;;;4.65;1.70;;;12.10;99.90;;;;;;2585373;54;20791;31
2022/09/17 07:08:20;;;;;;;6.03;2.00;;;12.10;99.90;;;;;;2585402;54;20029;31
2022/09/17 07:11:07;;;;;;;6.60;1.90;;;12.20;99.90;;;;;;2584405;54;20241;31
2022/09/17 07:13:43;;;;;;;5.93;1.70;;;12.20;99.90;;;;;;2585520;54;20955;31
2022/09/17 07:16:20;;;;;;;4.97;1.90;;;12.20;99.90;;;;;;2701529;39;20457;31
2022/09/17 07:18:58;;;;;;;6.95;1.73;;;12.20;99.90;;;;;;2584611;54;20022;31
2022/09/17 07:21:33;;;;;;;5.70;2.10;;;12.30;99.90;;;;;;2702347;39;22263;31
2022/09/17 07:24:10;;;;;;;4.35;1.95;;;12.30;99.90;;;;;;2585414;54;21027;31
2022/09/17 07:26:49;;;;;;;5.65;1.67;;;12.30;99.90;;;;;;2603852;46;21416;31
2022/09/17 07:29:26;;;;;;;6.97;2.78;;;12.40;99.90;;;;;;2585531;54;20815;31
2022/09/17 07:32:06;;;;;;;4.43;1.92;;;12.40;99.90;;;;;;2585185;54;20910;31
2022/09/17 07:34:44;;;;;;;4.43;1.60;;;12.40;99.90;;;;;;2585696;46;20038;31
2022/09/17 07:37:17;;;;;;;;;;;12.50;99.90;;;;;;2584723;54;21930;31
2022/09/17 07:39:52;;;;;;;5.20;1.85;;;12.60;99.90;;;;;;2584614;54;20857;31
2022/09/17 07:42:32;;;;;;;9.40;2.70;;;12.60;99.90;;;;;;2585389;54;19993;31
2022/09/17 07:45:11;;;;;;;5.28;2.03;;;12.60;99.90;;;;;;2584416;54;20838;31
2022/09/17 07:47:53;;;;;;;6.13;1.80;;;12.60;99.90;;;;;;2584447;54;20026;31
2022/09/17 07:50:33;;;;;;;7.70;2.45;;;12.70;99.90;;;;;;2585056;54;20053;31
2022/09/17 07:53:10;;;;;;;9.32;2.13;;;12.60;99.90;;;;;;2585418;54;20030;31
2022/09/17 07:55:53;;;;;;;6.65;1.80;;;12.80;99.90;;;;;;2585530;54;20026;31
2022/09/17 07:58:31;;;;;;;6.07;1.93;;;12.80;99.90;;;;;;2585612;54;20057;31
2022/09/17 08:01:05;;;;;;;5.40;2.30;;;12.90;99.90;;;;;;2603790;46;20078;31
2022/09/17 08:03:45;;;;;;;5.15;2.15;;;12.90;99.90;;;;;;2585153;54;21013;31
2022/09/17 08:06:20;;;;;;;12.80;2.60;;;12.90;99.90;;;;;;2603939;46;20937;31
2022/09/17 08:08:57;;;;;;;5.50;2.00;;;13.00;99.90;;;;;;2603940;46;20164;31
2022/09/17 08:11:34;;;;;;;;;;;13.00;99.90;;;;;;2585571;54;20026;31
2022/09/17 08:14:30;;;;;;;8.32;2.42;;;13.00;99.90;;;;;;2753841;31;21440;31
2022/09/17 08:17:06;;;;;;;9.60;2.57;;;13.00;99.90;;;;;;2585487;54;20053;31
2022/09/17 08:19:51;;;;;;;9.45;2.65;;;13.00;99.90;;;;;;2701668;39;21085;31
2022/09/17 08:22:25;;;;;;;7.00;2.70;;;13.10;99.90;;;;;;2603547;46;20073;31
2022/09/17 08:25:03;;;;;;;6.13;1.92;;;13.10;99.90;;;;;;2585359;54;20027;31
2022/09/17 08:27:40;;;;;;;5.47;1.95;;;13.20;99.90;;;;;;2585542;54;20910;31
2022/09/17 08:30:18;;;;;;;7.18;1.90;;;13.20;99.90;;;;;;2603796;46;20031;31
2022/09/17 08:32:53;;;;;;;4.38;2.08;;;13.20;99.90;;;;;;2603529;46;20979;31
2022/09/17 08:35:29;;;;;;;4.93;2.43;;;13.30;99.90;;;;;;2585431;54;22569;31
2022/09/17 08:38:04;;;;;;;5.70;2.30;;;13.30;99.90;;;;;;2603486;46;25100;31
2022/09/17 08:40:43;;;;;;;7.13;2.22;;;13.30;99.90;;;;;;2585426;54;20055;31
2022/09/17 08:43:16;;;;;;;4.80;2.57;;;13.40;99.90;;;;;;2585496;54;20022;31
2022/09/17 08:45:56;;;;;;;6.30;2.20;;;13.40;99.90;;;;;;2584384;54;21075;31
2022/09/17 08:48:33;;;;;;;9.17;3.37;;;13.50;99.90;;;;;;2584569;54;22048;31
2022/09/17 08:51:17;;;;;;;6.25;2.30;;;13.50;99.90;;;;;;2584390;54;20052;31
2022/09/17 08:53:55;;;;;;;5.88;2.25;;;13.60;99.90;;;;;;2683013;39;21085;31
2022/09/17 08:56:30;;;;;;;6.47;2.00;;;13.70;99.90;;;;;;2682406;39;21312;31
2022/09/17 08:59:10;;;;;;;5.63;2.37;;;13.70;99.90;;;;;;2600451;46;20037;31
2022/09/17 09:01:51;;;;;;;5.63;2.53;;;13.90;99.90;;;;;;2585328;54;20337;31
2022/09/17 09:07:25;;;;;;;7.90;2.90;;;14.00;99.90;;;;;;2584324;54;20905;31
2022/09/17 09:10:05;;;;;;;7.10;3.00;;;14.00;99.90;;;;;;2593458;47;20041;31
2022/09/17 09:12:46;;;;;;;6.95;2.60;;;14.00;99.90;;;;;;2682803;39;21484;31
2022/09/17 09:15:35;;;;;;;4.97;2.45;;;14.10;99.90;;;;;;2585744;54;20908;31
2022/09/17 09:18:15;;;;;;;5.60;3.05;;;14.00;99.90;;;;;;2585667;54;20097;31
2022/09/17 09:20:54;;;;;;;6.70;2.95;;;14.00;99.90;;;;;;2586142;54;21225;31
2022/09/17 09:23:36;;;;;;;4.40;2.90;;;13.90;99.90;;;;;;2586366;54;19934;31
2022/09/17 09:26:15;;;;;;;6.65;2.97;;;13.90;99.90;;;;;;2586017;54;20998;31
2022/09/17 09:29:12;;;;;;;8.10;3.40;;;13.90;99.90;;;;;;2585960;54;21006;31
2022/09/17 09:31:49;;;;;;;;;;;13.90;99.90;;;;;;2604237;46;20822;31
2022/09/17 09:34:24;;;;;;;6.00;3.37;;;13.90;99.90;;;;;;2604511;46;19957;31
2022/09/17 09:37:00;;;;;;;3.67;2.90;;;13.90;99.90;;;;;;2586020;54;20027;31
2022/09/17 09:39:37;;;;;;;5.25;3.30;;;13.90;99.90;;;;;;2598105;46;20935;31
2022/09/17 09:42:24;;;;;;;7.05;3.65;;;13.80;99.90;;;;;;2585908;54;20056;31
2022/09/17 09:45:00;;;;;;;7.07;3.78;;;13.90;99.90;;;;;;2590915;46;20797;31
2022/09/17 09:48:12;;;;;;;6.50;3.78;;;13.80;99.90;;;;;;2586070;54;20033;31
2022/09/17 09:50:52;;;;;;;6.17;4.17;;;13.80;99.90;;;;;;2586111;46;20970;31
2022/09/17 09:53:46;;;;;;;5.95;3.30;;;13.90;99.90;;;;;;2586114;54;20053;31
2022/09/17 09:56:57;;;;;;;9.00;4.40;;;13.90;99.90;;;;;;2584781;54;20029;31
2022/09/17 09:59:32;;;;;;;8.45;4.38;;;14.00;99.90;;;;;;2604215;46;20929;31
2022/09/17 10:02:09;;;;;;;7.25;4.30;;;14.00;99.90;;;;;;2604329;46;20908;31
2022/09/17 10:04:44;;;;;;;8.40;3.90;;;14.00;99.90;;;;;;2585984;54;20034;31
2022/09/17 10:07:27;;;;;;;7.30;3.60;;;14.10;99.90;;;;;;2604295;46;21102;31
2022/09/17 10:10:11;;;;;;;7.10;3.58;;;14.10;99.90;;;;;;2603848;46;21181;31
2022/09/17 10:12:48;;;;;;;8.25;3.53;;;14.20;99.90;;;;;;2604256;46;20542;31
2022/09/17 10:15:28;;;;;;;9.40;3.83;;;14.20;99.90;;;;;;2586000;54;20030;31
2022/09/17 10:18:14;;;;;;;5.35;3.05;;;14.40;99.90;;;;;;2585870;54;20975;31
2022/09/17 10:21:20;;;;;;;4.85;3.00;;;14.40;99.90;;;;;;2585648;54;20026;31
2022/09/17 10:23:56;;;;;;;7.17;3.60;;;14.50;99.90;;;;;;2585717;54;20998;31
2022/09/17 10:26:37;;;;;;;6.10;3.20;;;14.60;99.90;;;;;;2604086;46;20899;31
2022/09/17 10:29:17;;;;;;;10.50;3.70;;;14.60;99.90;;;;;;2586018;54;20030;31
2022/09/17 10:31:50;;;;;;;6.27;3.33;;;14.60;99.90;;;;;;2586026;54;20927;31
2022/09/17 10:34:24;;;;;;;5.05;2.95;;;14.70;99.90;;;;;;2585992;54;20038;31
2022/09/17 10:36:59;;;;;;;6.68;3.05;;;14.80;99.90;;;;;;2585705;54;20794;31
2022/09/17 10:39:37;;;;;;;15.70;7.03;;;14.70;99.90;;;;;;2585777;54;20917;31
2022/09/17 10:42:15;;;;;;;5.55;2.80;;;14.80;99.90;;;;;;2585910;54;20887;31
2022/09/17 10:44:56;;;;;;;4.60;2.92;;;14.70;99.90;;;;;;2599699;46;20031;31
2022/09/17 10:47:30;;;;;;;6.32;2.95;;;14.80;99.90;;;;;;2604144;46;20944;31
2022/09/17 10:50:07;;;;;;;5.33;2.37;;;14.70;99.90;;;;;;2585083;54;20026;31
2022/09/17 10:52:41;;;;;;;4.75;2.50;;;14.70;99.90;;;;;;2584684;54;21040;31
2022/09/17 10:55:22;;;;;;;5.50;2.43;;;14.70;99.90;;;;;;2585551;54;20030;31
2022/09/17 10:58:19;;;;;;;6.60;2.90;;;14.80;99.90;;;;;;2585670;54;21022;31
2022/09/17 11:01:02;;;;;;;4.37;2.00;;;14.80;99.90;;;;;;2683888;39;21146;31
2022/09/17 11:04:01;;;;;;;3.40;1.70;;;14.90;99.90;;;;;;2585487;54;20241;31
2022/09/17 11:07:08;;;;;;;7.50;2.20;;;15.20;99.90;;;;;;2603571;46;20140;31
2022/09/17 11:09:47;;;;;;;6.25;2.10;;;15.40;99.90;;;;;;2585306;54;20136;31
2022/09/17 11:12:43;;;;;;;3.67;1.90;;;15.50;99.90;;;;;;2585735;54;20854;31
2022/09/17 11:15:30;;;;;;;4.43;1.57;;;15.50;99.90;;;;;;2604397;46;20855;31
2022/09/17 11:18:16;;;;;;;4.60;1.40;;;15.60;99.90;;;;;;2604341;46;20037;31
2022/09/17 11:20:59;;;;;;;5.18;1.35;;;15.60;99.90;;;;;;2585557;54;20883;31
2022/09/17 11:23:46;;;;;;;3.07;1.33;;;15.60;99.90;;;;;;2585441;54;20134;31
2022/09/17 11:26:26;;;;;;;5.85;1.95;;;15.60;99.90;;;;;;2585729;54;20033;31
2022/09/17 11:29:04;;;;;;;5.13;1.80;;;15.50;99.90;;;;;;2585790;54;20034;31
2022/09/17 11:31:41;;;;;;;4.90;1.73;;;15.40;99.90;;;;;;2585600;54;20026;31
2022/09/17 11:34:46;;;;;;;5.65;1.55;;;15.40;99.90;;;;;;2702543;39;22275;31
2022/09/17 11:37:22;;;;;;;5.13;1.20;;;15.60;99.90;;;;;;2585696;54;20841;31
2022/09/17 11:39:57;;;;;;;;;;;15.80;99.90;;;;;;2585566;54;20826;31
2022/09/17 11:42:32;;;;;;;5.05;1.00;;;16.20;99.90;;;;;;2584847;54;19943;31
2022/09/17 11:45:14;;;;;;;6.43;1.10;;;16.40;99.90;;;;;;2603920;46;20026;31
2022/09/17 11:47:51;;;;;;;5.60;1.17;;;16.50;99.90;;;;;;2585810;54;20931;31
2022/09/17 11:50:38;;;;;;;3.58;1.02;;;16.50;99.90;;;;;;2604238;46;20920;31
2022/09/17 11:53:17;;;;;;;4.55;1.50;;;16.60;99.90;;;;;;2585450;54;20038;31
2022/09/17 11:55:51;;;;;;;4.32;1.55;;;16.70;99.90;;;;;;2585554;54;20085;31
2022/09/17 11:58:34;;;;;;;5.10;1.20;;;16.90;99.90;;;;;;2585645;54;20049;31
2022/09/17 12:01:19;;;;;;;4.75;1.40;;;17.00;99.90;;;;;;2585561;54;21196;31
2022/09/17 12:03:53;;;;;;;4.00;1.70;;;17.00;99.90;;;;;;2585350;54;20895;31
2022/09/17 12:06:32;;;;;;;;;;;16.90;99.90;;;;;;2585800;54;20023;31
2022/09/17 12:09:06;;;;;;;4.10;1.35;;;16.80;99.90;;;;;;2585548;54;20860;31
2022/09/17 12:11:43;;;;;;;4.30;1.70;;;16.70;99.90;;;;;;2585480;54;20053;31
2022/09/17 12:14:19;;;;;;;3.63;1.43;;;16.60;99.90;;;;;;2585402;54;20991;31
2022/09/17 12:16:52;;;;;;;1.67;0.82;;;16.60;99.90;;;;;;2604163;46;21030;31
2022/09/17 12:19:28;;;;;;;1.98;0.80;;;16.60;99.90;;;;;;2585087;54;20743;31
2022/09/17 12:22:08;;;;;;;4.35;1.55;;;16.60;99.90;;;;;;2585470;54;20023;31
2022/09/17 12:24:44;;;;;;;5.68;2.05;;;16.60;99.90;;;;;;2585520;54;20939;31
2022/09/17 12:27:20;;;;;;;6.70;1.67;;;16.70;99.90;;;;;;2584636;54;19954;31
2022/09/17 12:30:08;;;;;;;3.40;0.97;;;16.70;99.90;;;;;;2604191;46;22576;31
2022/09/17 12:33:06;;;;;;;2.55;0.80;;;16.70;99.90;;;;;;2603575;46;22213;31
2022/09/17 12:35:59;;;;;;;1.90;0.70;;;16.70;99.90;;;;;;2585189;54;20022;31
2022/09/17 12:38:55;;;;;;;3.58;0.82;;;16.70;99.90;;;;;;2585722;54;20049;31
2022/09/17 12:41:39;;;;;;;2.25;0.80;;;16.70;99.90;;;;;;2585502;54;20906;31
2022/09/17 12:44:27;;;;;;;4.03;1.20;;;16.70;99.90;;;;;;2585196;54;19934;31
2022/09/17 12:49:50;;;;;;;3.05;0.80;;;16.70;99.90;;;;;;2585146;54;20945;31
2022/09/17 12:52:32;;;;;;;1.60;0.60;;;16.80;99.90;;;;;;2701178;39;21466;31
2022/09/17 12:55:15;;;;;;;3.35;0.95;;;16.90;99.90;;;;;;2584887;54;20856;31
2022/09/17 12:57:58;;;;;;;2.80;0.75;;;17.00;99.90;;;;;;2585354;54;20081;31
2022/09/17 13:00:31;;;;;;;11.43;2.00;;;17.00;99.90;;;;;;2603880;46;20022;31
2022/09/17 13:03:09;;;;;;;7.43;1.73;;;17.00;99.90;;;;;;2585515;54;20069;31
2022/09/17 13:05:53;;;;;;;2.75;1.63;;;17.10;99.90;;;;;;2585458;54;20945;31
2022/09/17 13:08:29;;;;;;;3.10;0.50;;;16.80;99.90;;;;;;2585368;54;20883;31
2022/09/17 13:11:11;;;;;;;0.90;0.50;;;16.60;99.90;;;;;;2701826;39;22239;31
2022/09/17 13:13:50;;;;;;;3.70;1.00;;;16.60;99.90;;;;;;2584816;54;20898;31
2022/09/17 13:16:27;;;;;;;2.40;0.80;;;16.70;99.90;;;;;;2585104;54;20089;31
2022/09/17 13:19:02;;;;;;;1.17;0.50;;;16.90;99.90;;;;;;2584784;54;20042;31
2022/09/17 13:21:57;;;;;;;2.03;0.70;;;16.90;99.90;;;;;;2585139;54;20029;31
2022/09/17 13:24:34;;;;;;;1.70;0.60;;;17.00;99.90;;;;;;2584314;54;20023;31
2022/09/17 13:27:09;;;;;;;3.08;0.40;;;17.00;99.90;;;;;;2585124;54;20062;31
2022/09/17 13:30:03;;;;;;;2.17;0.40;;;17.00;99.90;;;;;;2753688;31;21434;31
2022/09/17 13:32:45;;;;;;;2.00;0.50;;;16.80;99.90;;;;;;2603934;47;20916;31
2022/09/17 13:37:47;;;;;;;2.00;0.50;;;16.70;99.90;;;;;;2584939;54;20061;31
2022/09/17 13:40:23;;;;;;;2.05;0.40;;;16.60;99.90;;;;;;2585180;54;20113;31
2022/09/17 13:42:57;;;;;;;;;;;16.50;99.90;;;;;;2585221;54;20033;31
2022/09/17 13:45:35;;;;;;;3.40;0.93;;;16.40;99.90;;;;;;2603229;47;20013;31
2022/09/17 13:48:11;;;;;;;7.70;1.10;;;16.30;99.90;;;;;;2585300;54;20023;31
2022/09/17 13:50:46;;;;;;;5.13;1.30;;;16.20;99.90;;;;;;2584202;54;20969;31
2022/09/17 13:53:26;;;;;;;3.40;0.87;;;16.20;99.90;;;;;;2584496;54;20262;31
2022/09/17 13:56:04;;;;;;;4.37;1.10;;;16.10;99.90;;;;;;2591838;47;21900;31
2022/09/17 13:58:37;;;;;;;4.40;0.90;;;16.10;99.90;;;;;;2603642;47;22446;31
2022/09/17 14:01:16;;;;;;;3.10;1.23;;;16.10;99.90;;;;;;2585142;54;25095;31
2022/09/17 14:03:54;;;;;;;3.40;1.70;;;16.10;99.90;;;;;;2586128;54;20906;31
2022/09/17 14:06:53;;;;;;;1.70;0.60;;;16.10;99.90;;;;;;2586010;54;20242;31